Time;durP1;ratioP1;P1;durP2;ratioP2;P2;SDS_P1;SDS_P2;PMS_P1;PMS_P2;Temp;Humidity;BMP_temperature;BMP_pressure;BME280_temperature;BME280_humidity;BME280_pressure;Samples;Min_cycle;Max_cycle;Signal;HPM_P1;HPM_P2
2023/04/08 00:01:02;;;;;;;14.27;9.50;;;9.00;37.10;;;;;;5081282;28;21229;-66
2023/04/08 00:03:29;;;;;;;12.87;9.87;;;9.00;37.10;;;;;;5086471;28;20476;-67
2023/04/08 00:05:56;;;;;;;12.73;8.70;;;9.00;37.30;;;;;;5084275;28;20812;-67
2023/04/08 00:08:23;;;;;;;14.27;9.87;;;9.00;37.40;;;;;;5085801;28;20556;-67
2023/04/08 00:10:50;;;;;;;14.03;9.97;;;9.00;37.40;;;;;;5086484;28;20462;-67
2023/04/08 00:13:17;;;;;;;15.17;9.73;;;9.00;37.80;;;;;;5083958;28;20529;-67
2023/04/08 00:15:45;;;;;;;11.97;9.70;;;9.00;37.60;;;;;;5082649;28;20992;-67
2023/04/08 00:18:15;;;;;;;13.80;10.37;;;9.00;37.60;;;;;;5083979;28;20743;-67
2023/04/08 00:20:43;;;;;;;12.17;9.40;;;9.00;37.60;;;;;;5087407;28;20488;-66
2023/04/08 00:23:10;;;;;;;12.90;9.43;;;9.00;37.80;;;;;;5086855;28;20471;-67
2023/04/08 00:25:37;;;;;;;13.90;10.33;;;9.00;37.60;;;;;;5084874;28;20760;-67
2023/04/08 00:28:04;;;;;;;12.60;9.20;;;9.00;37.50;;;;;;5082970;28;20510;-67
2023/04/08 00:30:30;;;;;;;12.53;9.10;;;9.00;37.50;;;;;;5084431;28;20464;-67
2023/04/08 00:32:59;;;;;;;12.00;8.60;;;9.00;37.60;;;;;;5084081;28;20508;-67
2023/04/08 00:35:26;;;;;;;11.30;8.50;;;9.00;37.70;;;;;;5081592;28;21354;-67
2023/04/08 00:37:53;;;;;;;12.43;9.17;;;8.90;38.00;;;;;;5081813;28;20951;-67
2023/04/08 00:40:19;;;;;;;13.80;8.13;;;8.90;38.00;;;;;;5085129;28;20487;-67
2023/04/08 00:42:46;;;;;;;13.50;8.77;;;8.90;38.20;;;;;;5086386;28;20466;-67
2023/04/08 00:45:14;;;;;;;13.40;9.10;;;8.80;38.20;;;;;;5082831;28;20555;-67
2023/04/08 00:47:41;;;;;;;14.43;9.00;;;8.80;38.30;;;;;;5081629;28;20548;-67
2023/04/08 00:50:10;;;;;;;13.17;9.43;;;8.80;38.50;;;;;;5077146;28;20987;-66
2023/04/08 00:52:37;;;;;;;14.93;9.07;;;8.80;38.70;;;;;;5084449;28;20463;-66
2023/04/08 00:55:05;;;;;;;14.10;9.60;;;8.70;38.50;;;;;;5083593;28;20496;-67
2023/04/08 00:57:32;;;;;;;13.80;9.43;;;8.70;38.50;;;;;;5078368;28;20456;-67
2023/04/08 00:59:59;;;;;;;12.50;9.23;;;8.70;38.40;;;;;;5081688;28;20460;-66
2023/04/08 01:02:33;;;;;;;12.37;9.07;;;8.70;38.20;;;;;;5082598;28;20468;-67
2023/04/08 01:05:04;;;;;;;19.17;9.67;;;8.70;38.20;;;;;;5083023;28;20474;-66
2023/04/08 01:07:35;;;;;;;12.47;8.70;;;8.70;38.10;;;;;;5080953;28;20476;-67
2023/04/08 01:10:06;;;;;;;13.67;8.93;;;8.70;38.20;;;;;;5080112;28;20940;-66
2023/04/08 01:12:40;;;;;;;12.37;9.60;;;8.80;38.10;;;;;;5082509;28;20456;-67
2023/04/08 01:15:10;;;;;;;11.60;8.77;;;8.70;38.10;;;;;;5076863;28;20480;-67
2023/04/08 01:17:37;;;;;;;13.87;10.23;;;8.80;38.30;;;;;;5078023;28;20463;-66
2023/04/08 01:20:07;;;;;;;13.87;9.20;;;8.70;38.40;;;;;;5086430;28;20486;-67
2023/04/08 01:22:46;;;;;;;13.43;8.53;;;8.70;38.40;;;;;;5088046;28;20463;-66
2023/04/08 01:25:27;;;;;;;14.40;9.73;;;8.70;38.60;;;;;;5079190;28;20478;-67
2023/04/08 01:27:56;;;;;;;12.43;9.33;;;8.70;38.60;;;;;;5084975;28;20562;-66
2023/04/08 01:30:25;;;;;;;13.47;9.67;;;8.70;38.70;;;;;;5086631;28;20476;-67
2023/04/08 01:32:54;;;;;;;12.07;8.47;;;8.70;38.70;;;;;;5082640;28;20895;-67
2023/04/08 01:35:21;;;;;;;15.70;9.73;;;8.70;38.90;;;;;;5079376;28;20979;-68
2023/04/08 01:37:50;;;;;;;12.57;8.70;;;8.70;38.90;;;;;;5085208;28;20967;-67
2023/04/08 01:40:17;;;;;;;11.70;8.27;;;8.70;38.80;;;;;;5086113;28;20456;-67
2023/04/08 01:42:45;;;;;;;14.60;9.17;;;8.70;39.10;;;;;;5084688;28;20479;-67
2023/04/08 01:45:15;;;;;;;12.73;8.83;;;8.70;39.20;;;;;;5082905;28;20482;-67
2023/04/08 01:47:46;;;;;;;12.27;8.50;;;8.70;39.20;;;;;;5087361;28;20495;-66
2023/04/08 01:50:16;;;;;;;12.37;9.50;;;8.70;39.30;;;;;;5089471;28;20456;-66
2023/04/08 01:52:45;;;;;;;14.10;10.23;;;8.70;39.10;;;;;;5089415;28;20492;-66
2023/04/08 01:55:11;;;;;;;14.40;10.30;;;8.80;39.10;;;;;;5086491;28;21184;-67
2023/04/08 01:57:40;;;;;;;17.30;12.80;;;8.80;39.10;;;;;;5084832;28;20464;-67
2023/04/08 02:00:09;;;;;;;17.23;11.87;;;8.70;39.40;;;;;;5087028;28;20463;-66
2023/04/08 02:02:39;;;;;;;18.63;13.37;;;8.70;39.40;;;;;;5087465;28;20464;-67
2023/04/08 02:05:07;;;;;;;18.80;12.40;;;8.70;39.40;;;;;;5085123;28;20480;-66
2023/04/08 02:07:34;;;;;;;17.13;11.97;;;8.70;39.20;;;;;;5083273;28;20467;-66
2023/04/08 02:10:00;;;;;;;18.50;13.13;;;8.70;39.10;;;;;;5088064;28;20555;-67
2023/04/08 02:12:28;;;;;;;16.87;12.57;;;8.70;39.00;;;;;;5087165;28;20467;-66
2023/04/08 02:14:56;;;;;;;18.40;12.20;;;8.70;39.00;;;;;;5085540;28;21018;-66
2023/04/08 02:17:28;;;;;;;19.50;13.60;;;8.70;38.80;;;;;;5084682;28;20627;-66
2023/04/08 02:20:01;;;;;;;19.53;13.23;;;8.70;38.80;;;;;;5088025;28;20983;-66
2023/04/08 02:22:36;;;;;;;20.93;13.50;;;8.70;38.90;;;;;;5084653;28;20465;-66
2023/04/08 02:25:07;;;;;;;18.20;13.00;;;8.70;39.10;;;;;;5086670;28;20519;-66
2023/04/08 02:27:35;;;;;;;19.60;14.13;;;8.70;39.10;;;;;;5083719;28;20456;-66
2023/04/08 02:30:04;;;;;;;20.30;13.60;;;8.70;39.20;;;;;;5086976;28;20476;-66
2023/04/08 02:32:32;;;;;;;20.10;15.40;;;8.70;39.10;;;;;;5084094;28;20468;-66
2023/04/08 02:35:02;;;;;;;19.73;13.80;;;8.70;38.80;;;;;;5085786;28;20483;-66
2023/04/08 02:37:29;;;;;;;16.97;13.00;;;8.70;38.80;;;;;;5083374;28;21738;-66
2023/04/08 02:39:56;;;;;;;19.13;13.07;;;8.70;38.70;;;;;;5086809;28;20476;-66
2023/04/08 02:42:23;;;;;;;17.90;13.50;;;8.70;38.70;;;;;;5085958;28;20472;-66
2023/04/08 02:44:50;;;;;;;19.70;14.10;;;8.70;38.80;;;;;;5085926;28;20484;-66
2023/04/08 02:47:16;;;;;;;23.80;15.20;;;8.70;38.60;;;;;;5076710;28;20464;-66
2023/04/08 02:49:43;;;;;;;21.33;14.50;;;8.80;38.60;;;;;;5076016;28;20475;-66
2023/04/08 02:52:11;;;;;;;20.93;14.27;;;8.80;38.60;;;;;;5087675;28;20468;-66
2023/04/08 02:54:38;;;;;;;22.50;15.37;;;8.80;38.60;;;;;;5079827;28;21002;-66
2023/04/08 02:57:05;;;;;;;23.90;16.43;;;8.80;38.50;;;;;;5085300;28;20479;-66
2023/04/08 02:59:31;;;;;;;23.83;15.73;;;8.80;38.70;;;;;;5085384;28;20483;-66
2023/04/08 03:01:58;;;;;;;23.73;15.67;;;8.90;38.30;;;;;;5084615;28;20526;-66
2023/04/08 03:04:25;;;;;;;22.73;15.80;;;8.90;38.40;;;;;;5075864;28;20480;-66
2023/04/08 03:06:52;;;;;;;25.53;16.43;;;8.90;38.50;;;;;;5080799;28;20884;-66
2023/04/08 03:09:20;;;;;;;22.87;15.90;;;8.90;38.50;;;;;;5083212;28;20475;-67
2023/04/08 03:11:51;;;;;;;21.13;14.83;;;8.90;38.50;;;;;;5086767;28;20464;-66
2023/04/08 03:14:18;;;;;;;26.57;17.50;;;8.90;38.60;;;;;;5081701;28;20486;-66
2023/04/08 03:16:45;;;;;;;24.50;16.50;;;8.90;38.60;;;;;;5083731;28;20484;-66
2023/04/08 03:19:12;;;;;;;22.10;16.40;;;8.80;38.50;;;;;;5082344;28;21247;-66
2023/04/08 03:21:38;;;;;;;24.47;15.40;;;8.80;38.70;;;;;;5087303;28;20701;-66
2023/04/08 03:24:05;;;;;;;22.43;15.47;;;8.80;38.80;;;;;;5084210;28;20866;-66
2023/04/08 03:26:33;;;;;;;23.43;16.07;;;8.80;39.10;;;;;;5080785;28;20460;-66
2023/04/08 03:29:00;;;;;;;23.87;16.00;;;8.70;39.10;;;;;;5086044;28;20498;-66
2023/04/08 03:31:27;;;;;;;22.57;15.90;;;8.80;39.00;;;;;;5087407;28;20476;-66
2023/04/08 03:33:55;;;;;;;21.93;15.03;;;8.80;38.90;;;;;;5078895;28;20492;-65
2023/04/08 03:36:22;;;;;;;23.53;17.43;;;8.80;38.70;;;;;;5078182;28;20838;-65
2023/04/08 03:38:48;;;;;;;26.03;16.67;;;8.80;38.60;;;;;;5085242;28;20964;-65
2023/04/08 03:41:15;;;;;;;25.73;16.60;;;8.90;38.60;;;;;;5086250;28;20467;-65
2023/04/08 03:43:44;;;;;;;22.50;16.17;;;8.90;38.50;;;;;;5077820;28;20483;-65
2023/04/08 03:46:11;;;;;;;23.80;15.83;;;8.90;38.40;;;;;;5080802;28;20463;-65
2023/04/08 03:48:37;;;;;;;22.93;16.30;;;8.90;38.50;;;;;;5085998;28;20502;-65
2023/04/08 03:51:05;;;;;;;23.30;16.23;;;9.00;38.50;;;;;;5082821;28;20464;-65
2023/04/08 03:53:31;;;;;;;22.20;14.00;;;9.00;38.50;;;;;;5083866;28;20484;-65
2023/04/08 03:55:59;;;;;;;21.27;14.30;;;9.00;38.50;;;;;;5076397;28;20584;-65
2023/04/08 03:58:26;;;;;;;20.00;14.20;;;9.00;38.50;;;;;;5079387;28;20452;-65
2023/04/08 04:00:54;;;;;;;21.23;14.03;;;9.10;38.40;;;;;;5085419;28;20467;-65
2023/04/08 04:03:21;;;;;;;22.33;15.07;;;9.10;38.40;;;;;;5084720;28;20547;-65
2023/04/08 04:05:48;;;;;;;23.47;14.90;;;9.10;38.40;;;;;;5080341;28;20468;-65
2023/04/08 04:08:15;;;;;;;18.97;12.30;;;9.10;38.10;;;;;;5080494;28;20952;-65
2023/04/08 04:10:41;;;;;;;16.80;11.33;;;9.10;38.00;;;;;;5085944;28;20464;-65
2023/04/08 04:13:08;;;;;;;16.73;11.87;;;9.10;38.10;;;;;;5078056;28;20465;-65
2023/04/08 04:15:38;;;;;;;19.20;12.37;;;9.10;37.90;;;;;;5082392;28;20979;-65
2023/04/08 04:18:06;;;;;;;18.10;11.60;;;9.10;38.00;;;;;;5081452;28;20490;-65
2023/04/08 04:20:33;;;;;;;17.13;11.40;;;9.10;38.00;;;;;;5082599;28;20962;-65
2023/04/08 04:22:59;;;;;;;16.47;11.30;;;9.10;38.00;;;;;;5079985;28;20475;-65
2023/04/08 04:25:26;;;;;;;14.50;10.63;;;9.00;37.90;;;;;;5083891;28;20484;-65
2023/04/08 04:27:53;;;;;;;16.10;11.23;;;9.00;37.90;;;;;;5082026;28;20462;-65
2023/04/08 04:30:20;;;;;;;13.00;9.73;;;9.00;37.90;;;;;;5083344;28;20456;-65
2023/04/08 04:32:47;;;;;;;14.90;11.57;;;9.00;37.90;;;;;;5083660;28;20496;-65
2023/04/08 04:35:15;;;;;;;16.17;10.43;;;9.00;37.80;;;;;;5083158;28;20516;-66
2023/04/08 04:37:42;;;;;;;14.90;10.37;;;9.00;37.80;;;;;;5081482;28;20477;-66
2023/04/08 04:40:09;;;;;;;16.73;12.10;;;9.00;38.00;;;;;;5080784;28;21013;-66
2023/04/08 04:42:36;;;;;;;14.20;10.33;;;9.00;38.10;;;;;;5086104;28;20464;-65
2023/04/08 04:45:03;;;;;;;15.47;9.90;;;9.00;38.10;;;;;;5087473;28;20491;-65
2023/04/08 04:47:31;;;;;;;16.37;10.77;;;9.00;38.00;;;;;;5086465;28;20460;-65
2023/04/08 04:49:58;;;;;;;16.07;9.90;;;9.00;37.90;;;;;;5081429;28;20464;-65
2023/04/08 04:52:26;;;;;;;15.20;10.57;;;9.10;37.90;;;;;;5081014;28;20956;-65
2023/04/08 04:54:52;;;;;;;15.27;10.53;;;9.00;37.80;;;;;;5085263;28;20487;-65
2023/04/08 04:57:19;;;;;;;16.77;11.43;;;9.00;37.80;;;;;;5083296;28;20831;-65
2023/04/08 04:59:46;;;;;;;14.00;10.10;;;9.10;37.80;;;;;;5087483;28;20470;-65
2023/04/08 05:02:12;;;;;;;14.57;10.03;;;9.00;37.70;;;;;;5088764;28;20517;-65
2023/04/08 05:04:39;;;;;;;15.50;10.97;;;9.00;37.50;;;;;;5084603;28;20491;-65
2023/04/08 05:07:06;;;;;;;15.40;11.57;;;9.00;37.50;;;;;;5087871;28;20467;-65
2023/04/08 05:09:34;;;;;;;15.10;11.27;;;9.00;37.40;;;;;;5083955;28;20471;-66
2023/04/08 05:12:01;;;;;;;18.70;12.20;;;9.10;37.30;;;;;;5097123;22;20863;-68
2023/04/08 05:14:29;;;;;;;18.40;11.50;;;9.10;37.30;;;;;;5077982;28;20504;-67
2023/04/08 05:16:56;;;;;;;17.00;11.57;;;9.00;37.40;;;;;;5087496;28;20971;-67
2023/04/08 05:19:22;;;;;;;16.00;11.17;;;9.00;37.50;;;;;;5087679;28;20522;-68
2023/04/08 05:21:49;;;;;;;16.87;11.90;;;9.00;37.60;;;;;;5084168;28;20460;-68
2023/04/08 05:24:16;;;;;;;18.93;12.20;;;9.00;37.60;;;;;;5086784;28;20568;-68
2023/04/08 05:26:44;;;;;;;17.30;12.77;;;8.90;37.80;;;;;;5083407;28;20455;-67
2023/04/08 05:29:11;;;;;;;18.10;12.30;;;8.90;38.00;;;;;;5090519;28;20460;-67
2023/04/08 05:31:37;;;;;;;15.37;11.47;;;8.90;38.20;;;;;;5077791;28;20472;-68
2023/04/08 05:34:04;;;;;;;15.13;11.40;;;8.90;38.20;;;;;;5087259;28;20846;-68
2023/04/08 05:36:31;;;;;;;17.80;12.53;;;8.90;38.10;;;;;;5075709;28;20476;-67
2023/04/08 05:39:00;;;;;;;15.80;11.67;;;9.00;38.10;;;;;;5076787;28;21247;-67
2023/04/08 05:41:27;;;;;;;16.37;11.30;;;9.00;37.90;;;;;;5083139;28;20462;-67
2023/04/08 05:43:55;;;;;;;17.50;11.93;;;9.00;37.90;;;;;;5083765;28;20476;-67
2023/04/08 05:46:22;;;;;;;17.67;12.30;;;9.00;37.90;;;;;;5087349;28;20460;-66
2023/04/08 05:48:49;;;;;;;16.30;11.80;;;9.00;37.80;;;;;;5085813;28;20467;-66
2023/04/08 05:51:17;;;;;;;15.97;11.80;;;9.00;37.90;;;;;;5086848;28;20918;-66
2023/04/08 05:53:45;;;;;;;18.47;13.57;;;9.00;37.80;;;;;;5079781;28;20512;-66
2023/04/08 05:56:12;;;;;;;16.33;12.10;;;9.00;37.80;;;;;;5083190;28;20468;-66
2023/04/08 05:58:39;;;;;;;17.83;12.07;;;9.00;37.80;;;;;;5081248;28;20468;-67
2023/04/08 06:01:07;;;;;;;20.50;13.23;;;9.00;37.70;;;;;;5080071;28;21017;-65
2023/04/08 06:03:33;;;;;;;16.07;11.47;;;9.00;37.70;;;;;;5065344;28;20488;-67
2023/04/08 06:06:00;;;;;;;18.47;12.13;;;9.10;37.60;;;;;;5080496;28;20840;-66
2023/04/08 06:08:27;;;;;;;16.80;12.37;;;9.00;37.60;;;;;;5085950;28;20459;-66
2023/04/08 06:10:53;;;;;;;16.67;11.67;;;9.10;37.60;;;;;;5087310;28;20456;-66
2023/04/08 06:13:20;;;;;;;18.30;12.33;;;9.10;37.60;;;;;;5077712;28;20486;-66
2023/04/08 06:15:48;;;;;;;18.00;12.53;;;9.10;37.60;;;;;;5073159;28;20465;-66
2023/04/08 06:18:16;;;;;;;20.93;13.67;;;9.10;37.70;;;;;;5078156;28;20980;-66
2023/04/08 06:20:43;;;;;;;17.30;12.67;;;9.10;37.70;;;;;;5080987;28;21731;-66
2023/04/08 06:23:10;;;;;;;19.53;14.00;;;9.10;37.60;;;;;;5082328;28;20472;-66
2023/04/08 06:25:37;;;;;;;16.80;12.20;;;9.20;37.30;;;;;;5084855;28;20514;-67
2023/04/08 06:28:03;;;;;;;18.00;12.17;;;9.20;37.40;;;;;;5080854;28;20466;-66
2023/04/08 06:30:30;;;;;;;17.77;12.97;;;9.30;37.40;;;;;;5081773;28;20492;-67
2023/04/08 06:32:58;;;;;;;18.93;12.30;;;9.30;37.20;;;;;;5079549;28;20465;-67
2023/04/08 06:35:26;;;;;;;17.70;12.53;;;9.30;37.30;;;;;;5080157;28;20489;-67
2023/04/08 06:37:53;;;;;;;16.53;12.97;;;9.30;37.10;;;;;;5084915;28;20484;-67
2023/04/08 06:40:20;;;;;;;18.60;13.53;;;9.30;37.10;;;;;;5080042;28;20472;-67
2023/04/08 06:42:47;;;;;;;17.80;12.80;;;9.40;36.90;;;;;;5080571;28;20464;-67
2023/04/08 06:45:14;;;;;;;16.93;13.20;;;9.40;37.10;;;;;;5074225;28;20492;-67
2023/04/08 06:47:41;;;;;;;20.13;15.70;;;9.40;36.90;;;;;;5078880;28;20465;-67
2023/04/08 06:50:08;;;;;;;18.73;13.40;;;9.40;36.80;;;;;;5082873;28;20464;-67
2023/04/08 06:52:36;;;;;;;19.97;14.37;;;9.40;36.80;;;;;;5081646;28;20488;-67
2023/04/08 06:55:03;;;;;;;19.27;13.87;;;9.50;36.70;;;;;;5080936;28;20487;-67
2023/04/08 06:57:30;;;;;;;18.80;13.73;;;9.50;36.70;;;;;;5082632;28;20476;-67
2023/04/08 06:59:57;;;;;;;24.40;15.10;;;9.50;36.70;;;;;;5084049;28;20480;-67
2023/04/08 07:02:23;;;;;;;24.63;17.50;;;9.60;36.50;;;;;;5079706;28;20472;-67
2023/04/08 07:04:50;;;;;;;21.67;15.27;;;9.60;36.30;;;;;;5076451;28;20491;-66
2023/04/08 07:07:17;;;;;;;22.90;15.50;;;9.60;36.20;;;;;;5081881;28;20471;-67
2023/04/08 07:09:45;;;;;;;20.40;14.00;;;9.70;36.30;;;;;;5078725;28;21165;-67
2023/04/08 07:12:12;;;;;;;21.70;15.30;;;9.80;36.10;;;;;;5077415;28;20496;-67
2023/04/08 07:14:39;;;;;;;20.87;14.53;;;9.90;35.90;;;;;;5067818;28;20483;-66
2023/04/08 07:17:06;;;;;;;21.70;15.87;;;10.00;35.90;;;;;;5075952;28;20482;-66
2023/04/08 07:19:33;;;;;;;18.97;14.60;;;10.10;35.90;;;;;;5074400;28;20977;-67
2023/04/08 07:21:59;;;;;;;21.40;15.57;;;10.20;35.60;;;;;;5074759;28;20467;-68
2023/04/08 07:24:26;;;;;;;20.17;16.10;;;10.30;35.50;;;;;;5074937;28;20723;-66
2023/04/08 07:26:55;;;;;;;20.07;14.90;;;10.40;35.30;;;;;;5076421;28;20553;-65
2023/04/08 07:29:22;;;;;;;23.10;15.90;;;10.40;35.10;;;;;;5081838;28;20467;-65
2023/04/08 07:31:49;;;;;;;23.20;16.40;;;10.50;34.80;;;;;;5081138;28;20480;-65
2023/04/08 07:34:15;;;;;;;20.57;15.00;;;10.50;34.60;;;;;;5076435;28;21221;-65
2023/04/08 07:36:42;;;;;;;23.33;17.13;;;10.50;34.40;;;;;;5083126;28;20463;-65
2023/04/08 07:39:09;;;;;;;19.70;14.97;;;10.50;34.40;;;;;;5084792;28;20468;-65
2023/04/08 07:41:35;;;;;;;22.17;17.27;;;10.50;34.40;;;;;;5078362;28;20468;-65
2023/04/08 07:44:04;;;;;;;21.73;15.87;;;10.50;34.10;;;;;;5078304;28;20902;-65
2023/04/08 07:46:32;;;;;;;23.10;17.20;;;10.50;34.00;;;;;;5082945;28;20457;-65
2023/04/08 07:48:59;;;;;;;21.47;15.93;;;10.50;33.80;;;;;;5080216;28;20523;-66
2023/04/08 07:51:26;;;;;;;24.20;17.47;;;10.60;33.80;;;;;;5085485;28;20467;-64
2023/04/08 07:53:53;;;;;;;23.50;17.07;;;10.70;34.00;;;;;;5081044;28;21065;-65
2023/04/08 07:56:20;;;;;;;20.67;14.63;;;10.70;33.90;;;;;;5072040;28;20512;-65
2023/04/08 07:58:49;;;;;;;22.63;16.00;;;10.80;33.50;;;;;;5072219;28;20920;-66
2023/04/08 08:01:18;;;;;;;23.63;17.00;;;10.90;33.50;;;;;;5074755;28;20484;-65
2023/04/08 08:03:46;;;;;;;22.00;15.93;;;11.00;33.10;;;;;;5081051;28;20495;-65
2023/04/08 08:06:13;;;;;;;23.73;16.90;;;11.00;32.90;;;;;;5076141;28;20960;-66
2023/04/08 08:08:40;;;;;;;22.83;16.30;;;11.20;32.80;;;;;;5077489;28;20464;-66
2023/04/08 08:11:06;;;;;;;20.77;15.93;;;11.30;32.60;;;;;;5076998;28;20460;-66
2023/04/08 08:13:33;;;;;;;20.30;15.33;;;11.40;32.50;;;;;;5076198;28;20970;-66
2023/04/08 08:16:00;;;;;;;20.87;16.00;;;11.70;31.50;;;;;;5078769;28;20499;-66
2023/04/08 08:18:28;;;;;;;19.77;14.67;;;11.80;30.40;;;;;;5079587;28;20519;-66
2023/04/08 08:20:55;;;;;;;19.77;13.97;;;11.90;30.00;;;;;;5082800;28;20487;-66
2023/04/08 08:23:22;;;;;;;20.27;14.20;;;12.00;29.20;;;;;;5082820;28;20464;-66
2023/04/08 08:25:49;;;;;;;19.47;14.47;;;12.00;29.10;;;;;;5075831;28;20460;-66
2023/04/08 08:28:15;;;;;;;20.60;15.30;;;12.00;28.90;;;;;;5086804;28;20955;-67
2023/04/08 08:30:42;;;;;;;18.33;13.57;;;12.10;29.00;;;;;;5087837;28;20979;-66
2023/04/08 08:33:09;;;;;;;21.20;14.70;;;12.10;28.30;;;;;;5089253;28;20462;-66
2023/04/08 08:35:37;;;;;;;18.83;13.40;;;12.20;27.20;;;;;;5088487;28;20460;-66
2023/04/08 08:38:03;;;;;;;18.77;13.10;;;12.30;27.00;;;;;;5081943;28;20520;-66
2023/04/08 08:40:30;;;;;;;17.30;13.57;;;12.40;26.40;;;;;;5088291;28;20472;-66
2023/04/08 08:42:58;;;;;;;17.77;13.00;;;12.50;25.50;;;;;;5082631;28;20471;-67
2023/04/08 08:45:24;;;;;;;17.90;13.50;;;12.50;25.30;;;;;;5082292;28;20503;-66
2023/04/08 08:47:51;;;;;;;18.47;13.80;;;12.50;25.00;;;;;;5088308;28;20501;-66
2023/04/08 08:50:18;;;;;;;18.00;13.87;;;12.60;25.10;;;;;;5078084;28;20564;-66
2023/04/08 08:52:50;;;;;;;16.30;12.20;;;12.70;24.70;;;;;;5082045;28;20472;-65
2023/04/08 08:55:18;;;;;;;18.27;13.97;;;12.70;24.80;;;;;;5077469;28;20520;-66
2023/04/08 08:57:45;;;;;;;16.10;12.63;;;12.80;24.70;;;;;;5082702;28;20498;-67
2023/04/08 09:00:14;;;;;;;17.37;13.10;;;13.00;23.90;;;;;;5087557;28;20466;-67
2023/04/08 09:02:42;;;;;;;16.40;12.37;;;13.20;23.30;;;;;;5087213;28;20554;-67
2023/04/08 09:05:08;;;;;;;16.10;12.77;;;13.40;22.40;;;;;;5079867;28;20617;-67
2023/04/08 09:07:39;;;;;;;16.13;11.80;;;13.60;22.10;;;;;;5085001;28;20842;-67
2023/04/08 09:10:09;;;;;;;15.37;12.40;;;13.80;20.80;;;;;;5086642;28;20460;-66
2023/04/08 09:12:52;;;;;;;15.67;11.57;;;14.00;19.50;;;;;;5085777;28;21077;-66
2023/04/08 09:15:19;;;;;;;16.70;13.07;;;14.10;19.60;;;;;;5086946;28;20489;-66
2023/04/08 09:17:46;;;;;;;18.70;13.03;;;14.20;19.20;;;;;;5088090;28;20487;-66
2023/04/08 09:20:14;;;;;;;15.90;12.53;;;14.30;19.30;;;;;;5082480;28;20975;-67
2023/04/08 09:22:57;;;;;;;15.77;11.90;;;14.60;19.10;;;;;;5087025;28;20540;-67
2023/04/08 09:25:26;;;;;;;14.30;11.70;;;15.00;18.00;;;;;;5080992;28;21222;-67
2023/04/08 09:27:53;;;;;;;13.63;11.53;;;15.30;17.00;;;;;;5087183;28;20839;-67
2023/04/08 09:30:22;;;;;;;16.30;12.17;;;15.30;15.70;;;;;;5085779;28;20479;-67
2023/04/08 09:32:50;;;;;;;15.40;12.17;;;15.00;15.90;;;;;;5086811;28;20460;-66
2023/04/08 09:35:18;;;;;;;14.63;10.87;;;14.70;16.00;;;;;;5078870;28;20490;-67
2023/04/08 09:37:45;;;;;;;13.27;10.70;;;14.50;16.60;;;;;;5084749;28;20476;-66
2023/04/08 09:40:14;;;;;;;14.80;11.23;;;14.30;16.90;;;;;;5078425;28;20826;-65
2023/04/08 09:42:44;;;;;;;15.17;11.20;;;14.00;16.50;;;;;;5085558;28;20468;-67
2023/04/08 09:45:13;;;;;;;14.30;11.70;;;13.90;17.30;;;;;;5084634;28;21003;-66
2023/04/08 09:47:52;;;;;;;15.60;12.10;;;13.90;17.20;;;;;;5087157;28;20506;-65
2023/04/08 09:50:24;;;;;;;16.90;12.47;;;13.90;17.20;;;;;;5083155;28;20484;-65
2023/04/08 09:52:56;;;;;;;15.23;11.70;;;13.80;17.20;;;;;;5085803;28;20570;-67
2023/04/08 09:55:26;;;;;;;16.23;11.60;;;13.80;17.40;;;;;;5082381;28;20483;-65
2023/04/08 09:57:58;;;;;;;14.27;11.17;;;13.60;17.50;;;;;;5079436;28;20476;-65
2023/04/08 10:00:29;;;;;;;15.33;11.80;;;13.40;18.00;;;;;;5080744;28;20473;-65
2023/04/08 10:03:02;;;;;;;16.63;12.60;;;13.30;18.30;;;;;;5083674;28;20456;-65
2023/04/08 10:05:30;;;;;;;15.50;11.30;;;13.20;18.20;;;;;;5083563;28;20487;-66
2023/04/08 10:07:57;;;;;;;15.90;12.23;;;13.10;18.30;;;;;;5086135;28;21076;-66
2023/04/08 10:10:25;;;;;;;14.53;11.47;;;12.90;18.20;;;;;;5083567;28;20823;-66
2023/04/08 10:12:51;;;;;;;15.40;11.53;;;12.80;18.20;;;;;;5082487;28;20464;-66
2023/04/08 10:15:27;;;;;;;16.00;12.70;;;12.70;18.10;;;;;;5084589;28;20491;-66
2023/04/08 10:17:55;;;;;;;15.50;12.77;;;12.60;18.90;;;;;;5085442;28;20834;-66
2023/04/08 10:20:41;;;;;;;15.30;12.83;;;12.60;18.80;;;;;;5086308;28;20485;-65
2023/04/08 10:23:09;;;;;;;13.90;11.60;;;12.50;18.80;;;;;;5078689;28;20456;-65
2023/04/08 10:25:37;;;;;;;16.87;12.00;;;12.50;18.80;;;;;;5078111;28;20955;-66
2023/04/08 10:28:25;;;;;;;15.13;11.93;;;12.50;18.90;;;;;;5061415;28;20464;-66
2023/04/08 10:30:55;;;;;;;17.40;12.83;;;12.50;18.20;;;;;;5073349;28;20477;-65
2023/04/08 10:33:24;;;;;;;15.40;12.13;;;12.50;17.00;;;;;;5076545;28;20492;-65
2023/04/08 10:35:53;;;;;;;15.27;11.20;;;12.50;16.20;;;;;;5083020;28;20468;-66
2023/04/08 10:38:20;;;;;;;13.20;11.13;;;12.40;15.50;;;;;;5077775;28;20495;-65
2023/04/08 10:40:50;;;;;;;16.50;11.23;;;12.40;14.70;;;;;;5074397;28;20464;-66
2023/04/08 10:43:18;;;;;;;14.97;11.23;;;12.40;14.80;;;;;;5073996;28;20459;-66
2023/04/08 10:45:49;;;;;;;14.87;12.27;;;12.40;14.90;;;;;;5080941;28;20459;-66
2023/04/08 10:48:21;;;;;;;14.37;11.30;;;12.40;15.20;;;;;;5077961;28;21060;-66
2023/04/08 10:50:55;;;;;;;14.90;11.43;;;12.40;14.90;;;;;;5081666;28;20488;-66
2023/04/08 10:53:27;;;;;;;18.23;11.80;;;12.40;14.80;;;;;;5071400;28;20461;-66
2023/04/08 10:55:54;;;;;;;14.10;11.00;;;12.50;14.80;;;;;;5079354;28;20459;-66
2023/04/08 10:58:20;;;;;;;17.40;12.47;;;12.50;13.90;;;;;;5085660;28;20550;-66
2023/04/08 11:00:47;;;;;;;16.83;11.80;;;12.50;14.20;;;;;;5081488;28;20507;-66
2023/04/08 11:03:14;;;;;;;17.03;12.20;;;12.50;14.80;;;;;;5079274;28;21043;-66
2023/04/08 11:05:42;;;;;;;18.90;12.30;;;12.50;14.40;;;;;;5075876;28;20560;-66
2023/04/08 11:08:09;;;;;;;15.23;11.60;;;12.60;14.40;;;;;;5075444;28;22937;-67
2023/04/08 11:10:38;;;;;;;13.37;10.80;;;12.60;14.60;;;;;;5076103;28;20460;-66
2023/04/08 11:13:08;;;;;;;14.30;11.80;;;12.60;14.90;;;;;;5057288;28;20468;-67
2023/04/08 11:15:35;;;;;;;17.30;13.23;;;12.60;15.40;;;;;;5072909;28;20480;-66
2023/04/08 11:18:03;;;;;;;16.70;13.57;;;12.60;16.10;;;;;;5076302;28;20991;-66
2023/04/08 11:20:31;;;;;;;15.07;11.50;;;12.70;16.70;;;;;;5080229;28;20467;-66
2023/04/08 11:22:59;;;;;;;16.70;12.67;;;12.70;16.90;;;;;;5076646;28;20456;-66
2023/04/08 11:25:26;;;;;;;17.50;13.07;;;12.70;17.20;;;;;;5070430;28;20482;-67
2023/04/08 11:27:53;;;;;;;15.90;12.70;;;12.70;16.50;;;;;;5065282;28;20457;-67
2023/04/08 11:30:21;;;;;;;15.30;12.57;;;12.70;16.40;;;;;;5074028;28;20476;-68
2023/04/08 11:32:48;;;;;;;15.30;12.30;;;12.80;16.70;;;;;;5072834;28;21245;-67
2023/04/08 11:35:17;;;;;;;15.13;12.50;;;12.80;15.90;;;;;;5070883;28;20488;-67
2023/04/08 11:37:46;;;;;;;14.40;12.60;;;12.90;15.90;;;;;;5076270;28;20485;-67
2023/04/08 11:40:20;;;;;;;16.97;12.97;;;13.10;15.30;;;;;;5078526;28;20580;-67
2023/04/08 11:42:47;;;;;;;17.13;12.50;;;13.20;15.20;;;;;;5074938;28;20530;-68
2023/04/08 11:45:16;;;;;;;15.33;12.47;;;13.30;14.80;;;;;;5076514;28;21006;-67
2023/04/08 11:47:43;;;;;;;16.50;12.80;;;13.30;14.70;;;;;;5086149;28;20460;-67
2023/04/08 11:50:10;;;;;;;15.03;12.23;;;13.40;14.60;;;;;;5076556;28;20457;-67
2023/04/08 11:52:45;;;;;;;18.40;12.30;;;13.40;14.60;;;;;;5083088;28;20461;-67
2023/04/08 11:55:21;;;;;;;15.10;11.83;;;13.30;14.40;;;;;;5071927;28;20493;-67
2023/04/08 11:57:48;;;;;;;14.10;11.80;;;13.20;14.50;;;;;;5082654;28;20459;-67
2023/04/08 12:00:15;;;;;;;17.93;13.70;;;13.20;14.90;;;;;;5074687;28;21494;-67
2023/04/08 12:02:42;;;;;;;16.37;13.67;;;13.10;14.80;;;;;;5079120;28;20834;-67
2023/04/08 12:05:09;;;;;;;14.07;11.80;;;13.20;14.80;;;;;;5079223;28;20508;-67
2023/04/08 12:07:36;;;;;;;14.87;12.30;;;13.10;14.50;;;;;;5082560;28;20460;-67
2023/04/08 12:10:03;;;;;;;13.50;11.70;;;13.20;14.60;;;;;;5079309;28;20986;-67
2023/04/08 12:12:31;;;;;;;16.57;14.00;;;13.20;14.30;;;;;;5073659;28;20464;-67
2023/04/08 12:14:59;;;;;;;17.23;14.40;;;13.20;14.40;;;;;;5076105;28;20584;-67
2023/04/08 12:17:25;;;;;;;20.47;14.40;;;13.30;14.50;;;;;;5076897;28;20471;-67
2023/04/08 12:19:52;;;;;;;16.10;13.00;;;13.40;13.80;;;;;;5077302;28;20475;-67
2023/04/08 12:22:19;;;;;;;14.70;13.10;;;13.40;14.00;;;;;;5082533;28;21289;-67
2023/04/08 12:24:46;;;;;;;15.43;12.10;;;13.30;14.00;;;;;;5076496;28;20484;-67
2023/04/08 12:27:12;;;;;;;16.30;13.80;;;13.20;13.70;;;;;;5080656;28;20479;-67
2023/04/08 12:29:40;;;;;;;14.93;12.73;;;13.30;13.50;;;;;;5083124;28;20460;-67
2023/04/08 12:32:07;;;;;;;16.93;12.73;;;13.40;13.80;;;;;;5072775;28;20520;-67
2023/04/08 12:34:34;;;;;;;16.33;13.10;;;13.30;13.60;;;;;;5082403;28;20480;-67
2023/04/08 12:37:01;;;;;;;16.20;14.03;;;13.30;14.00;;;;;;5077918;28;20472;-67